SUMZM MBGT-MDPC
Flight info
| Callsign | SUMZM |
|---|---|
| Flight time | 1h 2m |
| Altitude | 25000 |
| Route | POKEG POKEG2B |
| Aircraft | PC12/L-SDFGRWY/S |
Departure
| Time | 2026-05-07 15:45 |
|---|---|
| Airport | JAGS McCartney International Airport (MBGT) |
Arrival
| Time | 2026-05-07 16:47 |
|---|---|
| Airport | Punta Cana International Airport (MDPC) |
| Time | Latitude | Longitude | Altitude | Speed | Heading |
|---|---|---|---|---|---|
| 2026-05-07 15:37 | 21.44283 | -71.14648 | 15 ft | 0 kts | 325° |
| 2026-05-07 15:43 | 21.44284 | -71.14648 | 18 ft | 0 kts | 326° |
| 2026-05-07 15:43 | 21.44335 | -71.14634 | 15 ft | 13 kts | 21° |
| 2026-05-07 15:43 | 21.44356 | -71.14557 | 15 ft | 11 kts | 33° |
| 2026-05-07 15:44 | 21.44434 | -71.14535 | 15 ft | 14 kts | 14° |
| 2026-05-07 15:44 | 21.44512 | -71.14471 | 15 ft | 15 kts | 100° |
| 2026-05-07 15:44 | 21.44509 | -71.14459 | 15 ft | 0 kts | 104° |
| 2026-05-07 15:44 | 21.44500 | -71.14418 | 14 ft | 27 kts | 102° |
| 2026-05-07 15:45 | 21.44397 | -71.14001 | 15 ft | 83 kts | 104° |
| 2026-05-07 15:45 | 21.44257 | -71.13328 | 267 ft | 97 kts | 105° |
| 2026-05-07 15:45 | 21.44133 | -71.12581 | 645 ft | 107 kts | 103° |
| 2026-05-07 15:45 | 21.43994 | -71.11743 | 1003 ft | 120 kts | 103° |
| 2026-05-07 15:46 | 21.42943 | -71.10239 | 1767 ft | 148 kts | 146° |
| 2026-05-07 15:46 | 21.42051 | -71.09596 | 2147 ft | 160 kts | 143° |
| 2026-05-07 15:46 | 21.41122 | -71.08857 | 2512 ft | 171 kts | 141° |
| 2026-05-07 15:47 | 21.40163 | -71.08055 | 2879 ft | 178 kts | 141° |
| 2026-05-07 15:47 | 21.39176 | -71.07221 | 3246 ft | 184 kts | 141° |
| 2026-05-07 15:47 | 21.38159 | -71.06362 | 3617 ft | 188 kts | 140° |
| 2026-05-07 15:47 | 21.37124 | -71.05487 | 3978 ft | 192 kts | 141° |
| 2026-05-07 15:48 | 21.36068 | -71.04595 | 4341 ft | 193 kts | 141° |
| 2026-05-07 15:48 | 21.35003 | -71.03696 | 4715 ft | 195 kts | 141° |
| 2026-05-07 15:48 | 21.33935 | -71.02794 | 5074 ft | 196 kts | 141° |
| 2026-05-07 15:48 | 21.32871 | -71.01897 | 5424 ft | 197 kts | 141° |
| 2026-05-07 15:49 | 21.31791 | -71.00985 | 5788 ft | 198 kts | 141° |
| 2026-05-07 15:49 | 21.30711 | -71.00074 | 6154 ft | 198 kts | 142° |
| 2026-05-07 15:49 | 21.29613 | -70.99147 | 6525 ft | 199 kts | 141° |
| 2026-05-07 15:49 | 21.28540 | -70.98242 | 6872 ft | 199 kts | 141° |
| 2026-05-07 15:50 | 21.27444 | -70.97318 | 7219 ft | 200 kts | 141° |
| 2026-05-07 15:50 | 21.26345 | -70.96390 | 7570 ft | 202 kts | 141° |
| 2026-05-07 15:50 | 21.25240 | -70.95459 | 7925 ft | 203 kts | 141° |
| 2026-05-07 15:50 | 21.24121 | -70.94517 | 8283 ft | 204 kts | 142° |
| 2026-05-07 15:51 | 21.23000 | -70.93573 | 8666 ft | 205 kts | 142° |
| 2026-05-07 15:51 | 21.21875 | -70.92626 | 9028 ft | 206 kts | 142° |
| 2026-05-07 15:51 | 21.20746 | -70.91674 | 9400 ft | 207 kts | 142° |
| 2026-05-07 15:51 | 21.19614 | -70.90721 | 9784 ft | 208 kts | 142° |
| 2026-05-07 15:52 | 21.18485 | -70.89770 | 10142 ft | 209 kts | 142° |
| 2026-05-07 15:52 | 21.17326 | -70.88795 | 10488 ft | 210 kts | 142° |
| 2026-05-07 15:52 | 21.16193 | -70.87842 | 10830 ft | 210 kts | 142° |
| 2026-05-07 15:52 | 21.15037 | -70.86868 | 11184 ft | 211 kts | 142° |
| 2026-05-07 15:53 | 21.13869 | -70.85886 | 11541 ft | 212 kts | 142° |
| 2026-05-07 15:53 | 21.12719 | -70.84919 | 11900 ft | 213 kts | 142° |
| 2026-05-07 15:53 | 21.11550 | -70.83936 | 12263 ft | 214 kts | 143° |
| 2026-05-07 15:53 | 21.10382 | -70.82954 | 12630 ft | 214 kts | 143° |
| 2026-05-07 15:54 | 21.09205 | -70.81964 | 12999 ft | 215 kts | 143° |
| 2026-05-07 15:54 | 21.08022 | -70.80970 | 13376 ft | 216 kts | 143° |
| 2026-05-07 15:54 | 21.06840 | -70.79977 | 13764 ft | 217 kts | 144° |
| 2026-05-07 15:54 | 21.05642 | -70.78972 | 14115 ft | 218 kts | 143° |
| 2026-05-07 15:55 | 21.04460 | -70.77979 | 14457 ft | 219 kts | 143° |
| 2026-05-07 15:55 | 21.03249 | -70.76961 | 14804 ft | 219 kts | 143° |
| 2026-05-07 15:55 | 21.02060 | -70.75963 | 15148 ft | 220 kts | 142° |
| 2026-05-07 15:55 | 21.00853 | -70.74950 | 15499 ft | 220 kts | 142° |
| 2026-05-07 15:56 | 20.99652 | -70.73942 | 15851 ft | 220 kts | 141° |
| 2026-05-07 15:56 | 20.98444 | -70.72929 | 16213 ft | 220 kts | 141° |
| 2026-05-07 15:56 | 20.97239 | -70.71919 | 16579 ft | 220 kts | 141° |
| 2026-05-07 15:56 | 20.96033 | -70.70907 | 16945 ft | 220 kts | 140° |
| 2026-05-07 15:57 | 20.94828 | -70.69897 | 17323 ft | 220 kts | 140° |
| 2026-05-07 15:57 | 20.93620 | -70.68884 | 17700 ft | 220 kts | 140° |
| 2026-05-07 15:57 | 20.92416 | -70.67876 | 18082 ft | 220 kts | 140° |
| 2026-05-07 15:57 | 20.91211 | -70.66865 | 18457 ft | 220 kts | 140° |
| 2026-05-07 15:58 | 20.90413 | -70.66197 | 18674 ft | 220 kts | 140° |
| 2026-05-07 15:58 | 20.89210 | -70.65190 | 19010 ft | 220 kts | 140° |
| 2026-05-07 15:58 | 20.87615 | -70.63854 | 19456 ft | 220 kts | 139° |
| 2026-05-07 15:58 | 20.86407 | -70.62843 | 19797 ft | 221 kts | 139° |
| 2026-05-07 15:59 | 20.85192 | -70.61826 | 20153 ft | 222 kts | 139° |
| 2026-05-07 15:59 | 20.84373 | -70.61140 | 20373 ft | 222 kts | 139° |
| 2026-05-07 15:59 | 20.82758 | -70.59788 | 20854 ft | 223 kts | 138° |
| 2026-05-07 15:59 | 20.81928 | -70.59094 | 21096 ft | 224 kts | 138° |
| 2026-05-07 16:00 | 20.80715 | -70.58080 | 21455 ft | 225 kts | 137° |
| 2026-05-07 16:00 | 20.79476 | -70.57043 | 21836 ft | 226 kts | 137° |
| 2026-05-07 16:00 | 20.78236 | -70.56006 | 22197 ft | 227 kts | 137° |
| 2026-05-07 16:00 | 20.77014 | -70.54990 | 22563 ft | 210 kts | 136° |
| 2026-05-07 16:01 | 20.75959 | -70.54125 | 22904 ft | 178 kts | 134° |
| 2026-05-07 16:01 | 20.74979 | -70.53286 | 23297 ft | 181 kts | 134° |
| 2026-05-07 16:01 | 20.73993 | -70.52455 | 23690 ft | 180 kts | 134° |
| 2026-05-07 16:01 | 20.73011 | -70.51636 | 24008 ft | 178 kts | 134° |
| 2026-05-07 16:02 | 20.72024 | -70.50810 | 24326 ft | 184 kts | 134° |
| 2026-05-07 16:02 | 20.70985 | -70.49939 | 24555 ft | 196 kts | 135° |
| 2026-05-07 16:02 | 20.69879 | -70.49019 | 24785 ft | 207 kts | 136° |
| 2026-05-07 16:02 | 20.68720 | -70.48056 | 25020 ft | 215 kts | 136° |
| 2026-05-07 16:03 | 20.67499 | -70.47039 | 25094 ft | 232 kts | 136° |
| 2026-05-07 16:03 | 20.66188 | -70.45945 | 25103 ft | 247 kts | 137° |
| 2026-05-07 16:03 | 20.64816 | -70.44805 | 25104 ft | 258 kts | 137° |
| 2026-05-07 16:03 | 20.63351 | -70.43628 | 25106 ft | 268 kts | 139° |
| 2026-05-07 16:04 | 20.61826 | -70.42436 | 25105 ft | 275 kts | 139° |
| 2026-05-07 16:04 | 20.60265 | -70.41224 | 25106 ft | 280 kts | 140° |
| 2026-05-07 16:04 | 20.58676 | -70.39983 | 25104 ft | 284 kts | 139° |
| 2026-05-07 16:04 | 20.57076 | -70.38731 | 25102 ft | 286 kts | 140° |
| 2026-05-07 16:05 | 20.55472 | -70.37476 | 25106 ft | 286 kts | 139° |
| 2026-05-07 16:05 | 20.53862 | -70.36217 | 25106 ft | 288 kts | 140° |
| 2026-05-07 16:05 | 20.52237 | -70.34947 | 25107 ft | 289 kts | 140° |
| 2026-05-07 16:05 | 20.50616 | -70.33681 | 25108 ft | 290 kts | 140° |
| 2026-05-07 16:06 | 20.48985 | -70.32408 | 25105 ft | 290 kts | 140° |
| 2026-05-07 16:06 | 20.47350 | -70.31132 | 25105 ft | 291 kts | 140° |
| 2026-05-07 16:06 | 20.45720 | -70.29860 | 25106 ft | 291 kts | 140° |
| 2026-05-07 16:06 | 20.44104 | -70.28598 | 25102 ft | 291 kts | 140° |
| 2026-05-07 16:07 | 20.42471 | -70.27325 | 25101 ft | 291 kts | 140° |
| 2026-05-07 16:07 | 20.40839 | -70.26052 | 25099 ft | 291 kts | 140° |
| 2026-05-07 16:07 | 20.39200 | -70.24774 | 25100 ft | 291 kts | 140° |
| 2026-05-07 16:07 | 20.37566 | -70.23500 | 25101 ft | 291 kts | 140° |
| 2026-05-07 16:08 | 20.35937 | -70.22231 | 25104 ft | 291 kts | 140° |
| 2026-05-07 16:08 | 20.34306 | -70.20960 | 25106 ft | 290 kts | 140° |
| 2026-05-07 16:08 | 20.32670 | -70.19686 | 25104 ft | 290 kts | 140° |
| 2026-05-07 16:08 | 20.31041 | -70.18418 | 25103 ft | 290 kts | 140° |
| 2026-05-07 16:09 | 20.29409 | -70.17147 | 25102 ft | 290 kts | 140° |
| 2026-05-07 16:09 | 20.27779 | -70.15879 | 25101 ft | 290 kts | 140° |
| 2026-05-07 16:09 | 20.26161 | -70.14620 | 25103 ft | 290 kts | 140° |
| 2026-05-07 16:09 | 20.24534 | -70.13354 | 25101 ft | 290 kts | 140° |
| 2026-05-07 16:10 | 20.22903 | -70.12086 | 25100 ft | 290 kts | 140° |
| 2026-05-07 16:10 | 20.21273 | -70.10819 | 25100 ft | 290 kts | 140° |
| 2026-05-07 16:10 | 20.19643 | -70.09552 | 25100 ft | 290 kts | 141° |
| 2026-05-07 16:10 | 20.18020 | -70.08290 | 25102 ft | 290 kts | 141° |
| 2026-05-07 16:11 | 20.16394 | -70.07028 | 25100 ft | 290 kts | 141° |
| 2026-05-07 16:11 | 20.14764 | -70.05762 | 25102 ft | 289 kts | 141° |
| 2026-05-07 16:11 | 20.13142 | -70.04502 | 25101 ft | 289 kts | 141° |
| 2026-05-07 16:11 | 20.11511 | -70.03236 | 25102 ft | 289 kts | 141° |
| 2026-05-07 16:12 | 20.09887 | -70.01976 | 25101 ft | 289 kts | 141° |
| 2026-05-07 16:12 | 20.08256 | -70.00711 | 25100 ft | 289 kts | 141° |
| 2026-05-07 16:12 | 20.06631 | -69.99451 | 25098 ft | 289 kts | 141° |
| 2026-05-07 16:12 | 20.05024 | -69.98205 | 25101 ft | 289 kts | 141° |
| 2026-05-07 16:13 | 20.03400 | -69.96946 | 25102 ft | 289 kts | 141° |
| 2026-05-07 16:13 | 20.01775 | -69.95686 | 25098 ft | 289 kts | 141° |
| 2026-05-07 16:13 | 20.00151 | -69.94429 | 25101 ft | 289 kts | 141° |
| 2026-05-07 16:13 | 19.98511 | -69.93159 | 25102 ft | 289 kts | 141° |
| 2026-05-07 16:14 | 19.96906 | -69.91916 | 25104 ft | 289 kts | 141° |
| 2026-05-07 16:14 | 19.95281 | -69.90658 | 25104 ft | 289 kts | 141° |
| 2026-05-07 16:14 | 19.93657 | -69.89400 | 25104 ft | 289 kts | 141° |
| 2026-05-07 16:14 | 19.92038 | -69.88148 | 25102 ft | 288 kts | 141° |
| 2026-05-07 16:15 | 19.90411 | -69.86889 | 25100 ft | 288 kts | 141° |
| 2026-05-07 16:15 | 19.88791 | -69.85637 | 25100 ft | 288 kts | 141° |
| 2026-05-07 16:15 | 19.87166 | -69.84380 | 25101 ft | 288 kts | 141° |
| 2026-05-07 16:15 | 19.85540 | -69.83124 | 25101 ft | 288 kts | 141° |
| 2026-05-07 16:16 | 19.83919 | -69.81870 | 25100 ft | 288 kts | 141° |
| 2026-05-07 16:16 | 19.82300 | -69.80620 | 25106 ft | 288 kts | 141° |
| 2026-05-07 16:16 | 19.80678 | -69.79368 | 25107 ft | 288 kts | 141° |
| 2026-05-07 16:16 | 19.79050 | -69.78110 | 25103 ft | 288 kts | 141° |
| 2026-05-07 16:17 | 19.77447 | -69.76873 | 25104 ft | 288 kts | 141° |
| 2026-05-07 16:17 | 19.75830 | -69.75624 | 25103 ft | 288 kts | 141° |
| 2026-05-07 16:17 | 19.74205 | -69.74371 | 25102 ft | 288 kts | 141° |
| 2026-05-07 16:17 | 19.72583 | -69.73120 | 25103 ft | 288 kts | 141° |
| 2026-05-07 16:18 | 19.70960 | -69.71868 | 25102 ft | 288 kts | 141° |
| 2026-05-07 16:18 | 19.69334 | -69.70615 | 25103 ft | 288 kts | 141° |
| 2026-05-07 16:18 | 19.67708 | -69.69362 | 25102 ft | 288 kts | 141° |
| 2026-05-07 16:18 | 19.66094 | -69.68118 | 25104 ft | 288 kts | 141° |
| 2026-05-07 16:19 | 19.64474 | -69.66869 | 25103 ft | 288 kts | 141° |
| 2026-05-07 16:19 | 19.62868 | -69.65633 | 25102 ft | 288 kts | 141° |
| 2026-05-07 16:19 | 19.61247 | -69.64385 | 25103 ft | 288 kts | 141° |
| 2026-05-07 16:19 | 19.59629 | -69.63139 | 25101 ft | 288 kts | 141° |
| 2026-05-07 16:20 | 19.57985 | -69.61874 | 25099 ft | 288 kts | 141° |
| 2026-05-07 16:20 | 19.56387 | -69.60644 | 25096 ft | 288 kts | 141° |
| 2026-05-07 16:20 | 19.54767 | -69.59398 | 25093 ft | 288 kts | 141° |
| 2026-05-07 16:20 | 19.53147 | -69.58153 | 25090 ft | 288 kts | 141° |
| 2026-05-07 16:21 | 19.51524 | -69.56905 | 25091 ft | 288 kts | 141° |
| 2026-05-07 16:21 | 19.49899 | -69.55656 | 25089 ft | 288 kts | 141° |
| 2026-05-07 16:21 | 19.48281 | -69.54412 | 25088 ft | 288 kts | 141° |
| 2026-05-07 16:21 | 19.46655 | -69.53164 | 25085 ft | 288 kts | 141° |
| 2026-05-07 16:22 | 19.45043 | -69.51925 | 25092 ft | 288 kts | 141° |
| 2026-05-07 16:22 | 19.43434 | -69.50690 | 25091 ft | 288 kts | 141° |
| 2026-05-07 16:22 | 19.41815 | -69.49447 | 25091 ft | 288 kts | 141° |
| 2026-05-07 16:22 | 19.40188 | -69.48199 | 25092 ft | 288 kts | 141° |
| 2026-05-07 16:23 | 19.38569 | -69.46956 | 25091 ft | 288 kts | 141° |
| 2026-05-07 16:23 | 19.36947 | -69.45712 | 25086 ft | 288 kts | 141° |
| 2026-05-07 16:23 | 19.35328 | -69.44470 | 25086 ft | 288 kts | 141° |
| 2026-05-07 16:23 | 19.33706 | -69.43227 | 25087 ft | 288 kts | 141° |
| 2026-05-07 16:24 | 19.32086 | -69.41985 | 25084 ft | 288 kts | 141° |
| 2026-05-07 16:24 | 19.30478 | -69.40753 | 25083 ft | 288 kts | 141° |
| 2026-05-07 16:24 | 19.28855 | -69.39510 | 25085 ft | 288 kts | 141° |
| 2026-05-07 16:24 | 19.27213 | -69.38252 | 25081 ft | 288 kts | 141° |
| 2026-05-07 16:25 | 19.25612 | -69.37026 | 25081 ft | 288 kts | 141° |
| 2026-05-07 16:25 | 19.23993 | -69.35789 | 24873 ft | 283 kts | 141° |
| 2026-05-07 16:25 | 19.22425 | -69.34593 | 24574 ft | 273 kts | 141° |
| 2026-05-07 16:25 | 19.20907 | -69.33432 | 24284 ft | 265 kts | 141° |
| 2026-05-07 16:26 | 19.19431 | -69.32301 | 23994 ft | 259 kts | 141° |
| 2026-05-07 16:26 | 19.17988 | -69.31196 | 23711 ft | 252 kts | 141° |
| 2026-05-07 16:26 | 19.16581 | -69.30121 | 23380 ft | 246 kts | 141° |
| 2026-05-07 16:26 | 19.15677 | -69.29430 | 23152 ft | 241 kts | 141° |
| 2026-05-07 16:27 | 19.13900 | -69.28072 | 22705 ft | 231 kts | 141° |
| 2026-05-07 16:27 | 19.12610 | -69.27086 | 22369 ft | 225 kts | 141° |
| 2026-05-07 16:27 | 19.11355 | -69.26126 | 22031 ft | 220 kts | 141° |
| 2026-05-07 16:27 | 19.10130 | -69.25190 | 21717 ft | 216 kts | 142° |
| 2026-05-07 16:28 | 19.08938 | -69.24279 | 21397 ft | 212 kts | 142° |
| 2026-05-07 16:28 | 19.07750 | -69.23372 | 21082 ft | 209 kts | 142° |
| 2026-05-07 16:28 | 19.06582 | -69.22480 | 20777 ft | 206 kts | 142° |
| 2026-05-07 16:28 | 19.05422 | -69.21595 | 20461 ft | 204 kts | 143° |
| 2026-05-07 16:29 | 19.04284 | -69.20726 | 20156 ft | 202 kts | 143° |
| 2026-05-07 16:29 | 19.03152 | -69.19862 | 19855 ft | 200 kts | 143° |
| 2026-05-07 16:29 | 19.02025 | -69.19003 | 19552 ft | 198 kts | 143° |
| 2026-05-07 16:29 | 19.00921 | -69.18160 | 19254 ft | 196 kts | 144° |
| 2026-05-07 16:30 | 18.99805 | -69.17309 | 18957 ft | 196 kts | 144° |
| 2026-05-07 16:30 | 18.98706 | -69.16471 | 18665 ft | 195 kts | 144° |
| 2026-05-07 16:30 | 18.97611 | -69.15631 | 18376 ft | 193 kts | 142° |
| 2026-05-07 16:30 | 18.96753 | -69.14566 | 18052 ft | 191 kts | 117° |
| 2026-05-07 16:31 | 18.96107 | -69.13260 | 17733 ft | 213 kts | 116° |
| 2026-05-07 16:31 | 18.95371 | -69.11802 | 17417 ft | 235 kts | 117° |
| 2026-05-07 16:31 | 18.94568 | -69.10245 | 17098 ft | 245 kts | 118° |
| 2026-05-07 16:31 | 18.93766 | -69.08690 | 16776 ft | 241 kts | 118° |
| 2026-05-07 16:32 | 18.92972 | -69.07137 | 16446 ft | 235 kts | 118° |
| 2026-05-07 16:32 | 18.92203 | -69.05628 | 16127 ft | 230 kts | 118° |
| 2026-05-07 16:32 | 18.91458 | -69.04167 | 15818 ft | 227 kts | 118° |
| 2026-05-07 16:32 | 18.90712 | -69.02706 | 15505 ft | 226 kts | 118° |
| 2026-05-07 16:33 | 18.89970 | -69.01256 | 15199 ft | 222 kts | 118° |
| 2026-05-07 16:33 | 18.89245 | -68.99838 | 14891 ft | 217 kts | 118° |
| 2026-05-07 16:33 | 18.88538 | -68.98456 | 14586 ft | 211 kts | 118° |
| 2026-05-07 16:33 | 18.87850 | -68.97120 | 14290 ft | 203 kts | 119° |
| 2026-05-07 16:34 | 18.87086 | -68.95818 | 13998 ft | 214 kts | 123° |
| 2026-05-07 16:34 | 18.86257 | -68.94470 | 13690 ft | 222 kts | 122° |
| 2026-05-07 16:34 | 18.85423 | -68.93076 | 13359 ft | 226 kts | 122° |
| 2026-05-07 16:34 | 18.84589 | -68.91660 | 13035 ft | 229 kts | 122° |
| 2026-05-07 16:35 | 18.83740 | -68.90224 | 12712 ft | 229 kts | 122° |
| 2026-05-07 16:35 | 18.82898 | -68.88805 | 12396 ft | 228 kts | 122° |
| 2026-05-07 16:35 | 18.82069 | -68.87408 | 12081 ft | 226 kts | 122° |
| 2026-05-07 16:35 | 18.81232 | -68.85997 | 11764 ft | 225 kts | 122° |
| 2026-05-07 16:36 | 18.80404 | -68.84600 | 11453 ft | 224 kts | 122° |
| 2026-05-07 16:36 | 18.79581 | -68.83214 | 11148 ft | 222 kts | 122° |
| 2026-05-07 16:36 | 18.78765 | -68.81839 | 10843 ft | 221 kts | 122° |
| 2026-05-07 16:36 | 18.77951 | -68.80466 | 10543 ft | 219 kts | 123° |
| 2026-05-07 16:37 | 18.77145 | -68.79110 | 10247 ft | 218 kts | 123° |
| 2026-05-07 16:37 | 18.76339 | -68.77753 | 9943 ft | 218 kts | 122° |
| 2026-05-07 16:37 | 18.75533 | -68.76396 | 9611 ft | 220 kts | 122° |
| 2026-05-07 16:37 | 18.74723 | -68.75032 | 9291 ft | 222 kts | 123° |
| 2026-05-07 16:38 | 18.73900 | -68.73647 | 8973 ft | 223 kts | 123° |
| 2026-05-07 16:38 | 18.73072 | -68.72256 | 8653 ft | 224 kts | 122° |
| 2026-05-07 16:38 | 18.72246 | -68.70866 | 8335 ft | 223 kts | 123° |
| 2026-05-07 16:38 | 18.71422 | -68.69479 | 8025 ft | 223 kts | 122° |
| 2026-05-07 16:39 | 18.70602 | -68.68101 | 7713 ft | 222 kts | 122° |
| 2026-05-07 16:39 | 18.69786 | -68.66728 | 7405 ft | 221 kts | 122° |
| 2026-05-07 16:39 | 18.68969 | -68.65355 | 7097 ft | 219 kts | 122° |
| 2026-05-07 16:39 | 18.68163 | -68.64002 | 6798 ft | 217 kts | 122° |
| 2026-05-07 16:40 | 18.67362 | -68.62656 | 6506 ft | 216 kts | 123° |
| 2026-05-07 16:40 | 18.66561 | -68.61312 | 6182 ft | 216 kts | 122° |
| 2026-05-07 16:40 | 18.65765 | -68.59974 | 5857 ft | 214 kts | 122° |
| 2026-05-07 16:40 | 18.64982 | -68.58659 | 5544 ft | 210 kts | 122° |
| 2026-05-07 16:41 | 18.64180 | -68.57367 | 5241 ft | 209 kts | 129° |
| 2026-05-07 16:41 | 18.63073 | -68.56375 | 4925 ft | 212 kts | 149° |
| 2026-05-07 16:41 | 18.61696 | -68.55870 | 4590 ft | 210 kts | 169° |
| 2026-05-07 16:41 | 18.60267 | -68.55729 | 4289 ft | 209 kts | 173° |
| 2026-05-07 16:42 | 18.58833 | -68.55596 | 3959 ft | 205 kts | 171° |
| 2026-05-07 16:42 | 18.57478 | -68.55161 | 3656 ft | 205 kts | 151° |
| 2026-05-07 16:42 | 18.56374 | -68.54236 | 3357 ft | 204 kts | 131° |
| 2026-05-07 16:42 | 18.55656 | -68.52941 | 3038 ft | 206 kts | 111° |
| 2026-05-07 16:43 | 18.55436 | -68.51492 | 2747 ft | 197 kts | 90° |
| 2026-05-07 16:43 | 18.55553 | -68.50110 | 2410 ft | 186 kts | 86° |
| 2026-05-07 16:43 | 18.55673 | -68.48749 | 2120 ft | 192 kts | 86° |
| 2026-05-07 16:43 | 18.55796 | -68.47273 | 1764 ft | 203 kts | 86° |
| 2026-05-07 16:44 | 18.55912 | -68.45917 | 1664 ft | 160 kts | 87° |
| 2026-05-07 16:44 | 18.56003 | -68.44902 | 1590 ft | 126 kts | 88° |
| 2026-05-07 16:44 | 18.56080 | -68.43997 | 1265 ft | 117 kts | 88° |
| 2026-05-07 16:44 | 18.56180 | -68.43209 | 1217 ft | 101 kts | 88° |
| 2026-05-07 16:45 | 18.56226 | -68.42489 | 1082 ft | 93 kts | 91° |
| 2026-05-07 16:45 | 18.56288 | -68.41830 | 1014 ft | 88 kts | 92° |
| 2026-05-07 16:45 | 18.56315 | -68.41203 | 879 ft | 88 kts | 90° |
| 2026-05-07 16:45 | 18.56382 | -68.40564 | 695 ft | 87 kts | 84° |
| 2026-05-07 16:46 | 18.56448 | -68.39943 | 547 ft | 86 kts | 90° |
| 2026-05-07 16:46 | 18.56494 | -68.39344 | 419 ft | 77 kts | 91° |
| 2026-05-07 16:46 | 18.56536 | -68.38779 | 231 ft | 76 kts | 88° |
| 2026-05-07 16:46 | 18.56561 | -68.38406 | 154 ft | 77 kts | 88° |
| 2026-05-07 16:47 | 18.56606 | -68.37851 | 89 ft | 74 kts | 88° |
| 2026-05-07 16:47 | 18.56642 | -68.37390 | 47 ft | 51 kts | 82° |
| 2026-05-07 16:47 | 18.56671 | -68.37108 | 48 ft | 29 kts | 84° |
| 2026-05-07 16:47 | 18.56687 | -68.36907 | 49 ft | 26 kts | 85° |
| 2026-05-07 16:48 | 18.56670 | -68.36758 | 49 ft | 14 kts | 164° |
| 2026-05-07 16:48 | 18.56595 | -68.36755 | 47 ft | 6 kts | 180° |
| 2026-05-07 16:48 | 18.56531 | -68.36734 | 47 ft | 12 kts | 116° |
| 2026-05-07 16:48 | 18.56519 | -68.36671 | 47 ft | 8 kts | 125° |
| 2026-05-07 16:49 | 18.56487 | -68.36623 | 47 ft | 8 kts | 127° |
| 2026-05-07 16:49 | 18.56458 | -68.36575 | 47 ft | 8 kts | 104° |
| 2026-05-07 16:49 | 18.56451 | -68.36517 | 47 ft | 8 kts | 84° |
| 2026-05-07 16:49 | 18.56456 | -68.36458 | 47 ft | 8 kts | 86° |
| 2026-05-07 16:50 | 18.56460 | -68.36402 | 47 ft | 7 kts | 84° |
| 2026-05-07 16:50 | 18.56465 | -68.36349 | 47 ft | 7 kts | 84° |
| 2026-05-07 16:50 | 18.56469 | -68.36297 | 47 ft | 7 kts | 85° |
| 2026-05-07 16:50 | 18.56474 | -68.36246 | 47 ft | 7 kts | 84° |
| 2026-05-07 16:51 | 18.56478 | -68.36196 | 47 ft | 7 kts | 83° |
| 2026-05-07 16:51 | 18.56483 | -68.36146 | 47 ft | 9 kts | 84° |
| 2026-05-07 16:51 | 18.56491 | -68.36059 | 47 ft | 12 kts | 85° |
| 2026-05-07 16:51 | 18.56499 | -68.35972 | 47 ft | 12 kts | 84° |
| 2026-05-07 16:52 | 18.56507 | -68.35887 | 47 ft | 11 kts | 84° |
| 2026-05-07 16:52 | 18.56513 | -68.35809 | 47 ft | 10 kts | 92° |
| 2026-05-07 16:52 | 18.56466 | -68.35780 | 47 ft | 9 kts | 179° |
| 2026-05-07 16:52 | 18.56417 | -68.35791 | 47 ft | 5 kts | 177° |
| 2026-05-07 16:53 | 18.56413 | -68.35791 | 47 ft | 0 kts | 176° |